KSDF/SDF METAR and TAF weather

Enter ICAO airport designator
Station Type Date Time Source
KSDF METAR 2022/06/26 07:56 UTC NOAA

KSDF 260756Z 14005KT 10SM OVC130 27/22 A3001 RMK AO2 SLP156 T02720217


Station Type Date Time Source
KSDF Decoded METAR 2022/06/26 07:56 UTC NOAA

STANDIFORD FIELD, KY, United States (KSDF) 38-11N 085-44W 146M
Jun 26, 2022 - 03:56 AM EDT / 2022.06.26 0756 UTC
Wind: from the SE (140 degrees) at 6 MPH (5 KT):0
Visibility: 10 mile(s):0
Sky conditions: overcast
Temperature: 81.0 F (27.2 C)
Dew Point: 71.1 F (21.7 C)
Relative Humidity: 71%
Pressure (altimeter): 30.01 in. Hg (1016 hPa)
ob: KSDF 260756Z 14005KT 10SM OVC130 27/22 A3001 RMK AO2 SLP156 T02720217
cycle: 8

Station Type Date Time Source
KSDF TAF 2022/06/26 06:42 UTC NOAA

TAF KSDF 260539Z 2606/2712 19006KT P6SM BKN200
FM261400 25009KT P6SM BKN100
FM261700 28009KT P6SM VCSH BKN070
FM262300 33012KT P6SM OVC100
FM270400 36008KT P6SM SCT250

Example: see airport list